Disclaimer

Please do not use the information listed here in-flight or in-navigation, as they are not provided to us by the airports but are provided by volunteers, so they might be outdated.

Search


Regions


Airport information page

Radio informations:
CANNES TWR - 118.625 MHz
CANNES GND - 121.8 MHz
CANNES ATIS - 127.475 MHz

Airport informations:
Latitude: 43° 32' 31.38" N
Longitude: 006° 57' 12.52" E
Elevation: 13 feet - 4 meters
Operating hours: Remarks
Operating agency: Civil government, landing fees and diplomatic clearance may be required
Timezone: UTC+1(+2DT) - Last Sunday in March to last Sunday in October
Fuel: Jet A1, without icing nhibitor.

100/130 MIL Spec, low lead, aviation gasoline (BLUE)

Runway information:
05/23 - 2493 x 98 feet< - >760 x 30 meters
17/35 - 5282 x 148 feet< - >1610 x 45 meters

Recent METARs:
LFMD 191730Z AUTO VRB03KT CAVOK 09/02 Q1002 NOSIG
LFMD 191800Z AUTO 01004KT 340V040 CAVOK 07/02 Q1002 NOSIG
LFMD 191830Z AUTO 02005KT CAVOK 06/02 Q1002 NOSIG

Airport on the map: